createdAt,value
2022-08-20T00:01:21.972Z,98937.72
2022-08-20T00:03:27.868Z,98947.25
2022-08-20T00:05:56.666Z,98945.28
2022-08-20T00:08:00.611Z,98948.72
2022-08-20T00:10:03.233Z,98949.94
2022-08-20T00:12:07.083Z,98955.00
2022-08-20T00:14:14.601Z,98947.66
2022-08-20T00:16:18.407Z,98953.84
2022-08-20T00:18:22.345Z,98953.84
2022-08-20T00:20:27.058Z,98949.38
2022-08-20T00:22:29.717Z,98953.84
2022-08-20T00:24:33.176Z,98954.44
2022-08-20T00:26:35.255Z,98953.06
2022-08-20T00:28:39.553Z,98955.66
2022-08-20T00:30:45.502Z,98963.28
2022-08-20T00:32:55.641Z,98966.78
2022-08-20T00:34:57.932Z,98966.44
2022-08-20T00:37:00.066Z,98964.41
2022-08-20T00:39:02.493Z,98959.09
2022-08-20T00:41:06.075Z,98954.16
2022-08-20T00:43:44.072Z,98949.75
2022-08-20T00:45:46.979Z,98945.38
2022-08-20T00:47:51.312Z,98955.75
2022-08-20T00:49:53.876Z,98960.50
2022-08-20T00:51:59.181Z,98946.69
2022-08-20T00:54:14.409Z,98948.28
2022-08-20T00:56:19.759Z,98943.25
2022-08-20T00:58:22.527Z,98935.16
2022-08-20T01:00:32.711Z,98939.31
2022-08-20T01:02:35.092Z,98933.69
2022-08-20T01:04:37.721Z,98937.03
2022-08-20T01:06:40.506Z,98934.44
2022-08-20T01:08:43.407Z,98926.03
2022-08-20T01:10:49.780Z,98920.41
2022-08-20T01:12:55.656Z,98914.03
2022-08-20T01:15:04.643Z,98912.34
2022-08-20T01:17:08.519Z,98915.25
2022-08-20T01:19:30.028Z,98911.25
2022-08-20T01:21:34.516Z,98910.00
2022-08-20T01:23:59.366Z,98907.44
2022-08-20T01:26:13.824Z,98902.44
2022-08-20T01:28:19.840Z,98900.53
2022-08-20T01:30:25.958Z,98896.94
2022-08-20T01:32:28.119Z,98900.91
2022-08-20T01:34:39.274Z,98902.13
2022-08-20T01:36:48.492Z,98901.47
2022-08-20T01:38:54.931Z,98896.91
2022-08-20T01:41:38.710Z,98891.47
2022-08-20T01:43:46.360Z,98895.25
2022-08-20T01:45:53.163Z,98897.28
2022-08-20T01:47:55.421Z,98899.34
2022-08-20T01:50:06.098Z,98884.91
2022-08-20T01:52:09.354Z,98888.16
2022-08-20T01:54:12.065Z,98880.72
2022-08-20T01:56:17.998Z,98883.88
2022-08-20T01:58:20.523Z,98886.13
2022-08-20T02:00:24.071Z,98883.56
2022-08-20T02:02:26.729Z,98875.44
2022-08-20T02:04:31.645Z,98877.34
2022-08-20T02:06:42.353Z,98873.75
2022-08-20T02:09:01.452Z,98877.03
2022-08-20T02:11:11.575Z,98879.28
2022-08-20T02:13:17.361Z,98877.38
2022-08-20T02:15:19.919Z,98871.38
2022-08-20T02:17:38.136Z,98869.84
2022-08-20T02:19:57.812Z,98859.53
2022-08-20T02:22:04.616Z,98868.31
2022-08-20T02:24:09.812Z,98855.91
2022-08-20T02:26:12.967Z,98859.53
2022-08-20T02:28:17.249Z,98853.88
2022-08-20T02:30:28.603Z,98849.75
2022-08-20T02:32:34.110Z,98853.88
2022-08-20T02:34:36.776Z,98847.84
2022-08-20T02:36:40.071Z,98847.38
2022-08-20T02:38:42.864Z,98842.03
2022-08-20T02:40:46.660Z,98843.25
2022-08-20T02:42:48.756Z,98848.44
2022-08-20T02:44:50.883Z,98846.91
2022-08-20T02:46:53.273Z,98848.13
2022-08-20T02:48:56.429Z,98851.06
2022-08-20T02:51:02.666Z,98847.16
2022-08-20T02:53:04.839Z,98837.53
2022-08-20T02:55:07.699Z,98842.69
2022-08-20T02:57:14.977Z,98841.81
2022-08-20T02:59:19.749Z,98843.06
2022-08-20T03:01:22.889Z,98842.16
2022-08-20T03:03:25.616Z,98849.41
2022-08-20T03:05:28.197Z,98854.41
2022-08-20T03:07:30.677Z,98855.28
2022-08-20T03:09:33.443Z,98852.31
2022-08-20T03:11:36.005Z,98839.06
2022-08-20T03:13:38.559Z,98837.03
2022-08-20T03:15:44.634Z,98837.72
2022-08-20T03:17:47.179Z,98829.81
2022-08-20T03:19:49.245Z,98825.66
2022-08-20T03:21:51.492Z,98820.81
2022-08-20T03:23:53.936Z,98819.47
2022-08-20T03:25:56.631Z,98821.91
2022-08-20T03:27:59.378Z,98826.59
2022-08-20T03:30:01.769Z,98825.19
2022-08-20T03:32:07.678Z,98829.31
2022-08-20T03:34:11.758Z,98830.06
2022-08-20T03:36:14.269Z,98825.59
2022-08-20T03:38:32.330Z,98836.63
2022-08-20T03:40:35.995Z,98834.22
2022-08-20T03:42:39.987Z,98829.53
2022-08-20T03:44:42.133Z,98827.84
2022-08-20T03:46:46.566Z,98823.06
2022-08-20T03:48:48.787Z,98827.00
2022-08-20T03:50:53.476Z,98815.28
2022-08-20T03:52:58.835Z,98823.38
2022-08-20T03:55:00.968Z,98817.72
2022-08-20T03:57:12.741Z,98814.97
2022-08-20T03:59:15.343Z,98807.22
2022-08-20T04:01:44.843Z,98807.38
2022-08-20T04:03:42.983Z,98804.84
2022-08-20T04:05:45.399Z,98803.44
2022-08-20T04:07:47.860Z,98811.31
2022-08-20T04:09:50.147Z,98801.22
2022-08-20T04:12:02.212Z,98815.81
2022-08-20T04:14:04.899Z,98807.56
2022-08-20T04:16:11.264Z,98812.03
2022-08-20T04:18:20.655Z,98803.97
2022-08-20T04:20:26.176Z,98806.03
2022-08-20T04:22:28.232Z,98804.31
2022-08-20T04:24:32.423Z,98795.19
2022-08-20T04:26:36.456Z,98803.06
2022-08-20T04:28:38.724Z,98798.47
2022-08-20T04:30:44.637Z,98803.06
2022-08-20T04:32:54.570Z,98805.31
2022-08-20T04:34:58.805Z,98788.78
2022-08-20T04:37:01.165Z,98807.03
2022-08-20T04:39:03.398Z,98806.50
2022-08-20T04:41:05.806Z,98811.66
2022-08-20T04:43:08.149Z,98809.56
2022-08-20T04:45:15.216Z,98809.53
2022-08-20T04:47:23.942Z,98809.66
2022-08-20T04:49:39.078Z,98806.56
2022-08-20T04:51:46.298Z,98810.84
2022-08-20T04:53:53.339Z,98800.50
2022-08-20T04:55:59.679Z,98798.25
2022-08-20T04:58:14.812Z,98791.00
2022-08-20T05:00:17.552Z,98779.88
2022-08-20T05:02:21.648Z,98776.94
2022-08-20T05:04:27.965Z,98773.28
2022-08-20T05:06:32.566Z,98766.03
2022-08-20T05:08:36.248Z,98762.56
2022-08-20T05:10:40.448Z,98765.56
2022-08-20T05:12:44.081Z,98763.06
2022-08-20T05:14:58.965Z,98772.56
2022-08-20T05:17:07.158Z,98776.59
2022-08-20T05:19:13.356Z,98778.22
2022-08-20T05:21:15.729Z,98790.72
2022-08-20T05:23:20.107Z,98788.59
2022-08-20T05:25:22.521Z,98780.00
2022-08-20T05:27:27.338Z,98781.47
2022-08-20T05:29:29.786Z,98765.19
2022-08-20T05:31:33.567Z,98763.56
2022-08-20T05:33:39.869Z,98755.34
2022-08-20T05:35:42.087Z,98759.84
2022-08-20T05:37:45.344Z,98762.78
2022-08-20T05:39:47.649Z,98771.25
2022-08-20T05:41:51.111Z,98771.06
2022-08-20T05:43:53.315Z,98772.31
2022-08-20T05:45:58.671Z,98781.88
2022-08-20T05:48:13.052Z,98789.88
2022-08-20T05:50:23.243Z,98784.00
2022-08-20T05:52:25.941Z,98797.63
2022-08-20T05:54:28.243Z,98794.34
2022-08-20T05:56:31.239Z,98803.47
2022-08-20T05:58:33.789Z,98802.91
2022-08-20T06:00:37.485Z,98809.16
2022-08-20T06:02:59.168Z,98808.75
2022-08-20T06:05:01.687Z,98811.41
2022-08-20T06:07:06.865Z,98806.13
2022-08-20T06:09:09.354Z,98813.81
2022-08-20T06:11:16.256Z,98821.06
2022-08-20T06:13:18.473Z,98829.63
2022-08-20T06:15:21.119Z,98838.88
2022-08-20T06:17:26.025Z,98838.19
2022-08-20T06:19:38.753Z,98849.13
2022-08-20T06:21:41.606Z,98851.53
2022-08-20T06:23:57.504Z,98849.88
2022-08-20T06:26:06.749Z,98865.50
2022-08-20T06:28:13.439Z,98861.31
2022-08-20T06:30:17.345Z,98863.25
2022-08-20T06:32:32.053Z,98867.66
2022-08-20T06:34:35.177Z,98880.75
2022-08-20T06:36:37.364Z,98872.50
2022-08-20T06:38:39.379Z,98858.81
2022-08-20T06:40:41.771Z,98862.06
2022-08-20T06:42:48.138Z,98855.69
2022-08-20T06:44:51.451Z,98865.34
2022-08-20T06:47:00.496Z,98862.38
2022-08-20T06:49:05.399Z,98868.59
2022-08-20T06:51:07.770Z,98877.59
2022-08-20T06:53:15.070Z,98883.22
2022-08-20T06:55:20.733Z,98890.97
2022-08-20T06:57:26.181Z,98876.03
2022-08-20T06:59:28.332Z,98875.44
2022-08-20T07:01:30.679Z,98875.25
2022-08-20T07:03:32.962Z,98874.22
2022-08-20T07:05:43.526Z,98873.19
2022-08-20T07:07:51.152Z,98874.25
2022-08-20T07:10:03.460Z,98870.22
2022-08-20T07:12:06.408Z,98877.50
2022-08-20T07:14:08.814Z,98877.13
2022-08-20T07:16:10.706Z,98883.09
2022-08-20T07:18:14.346Z,98889.28
2022-08-20T07:20:16.770Z,98897.22
2022-08-20T07:22:18.733Z,98898.50
2022-08-20T07:24:20.593Z,98895.72
2022-08-20T07:26:23.279Z,98898.72
2022-08-20T07:28:31.971Z,98892.25
2022-08-20T07:30:56.181Z,98895.22
2022-08-20T07:32:59.934Z,98893.88
2022-08-20T07:35:02.057Z,98892.16
2022-08-20T07:37:04.121Z,98891.88
2022-08-20T07:39:06.796Z,98891.81
2022-08-20T07:41:13.234Z,98880.22
2022-08-20T07:43:16.372Z,98883.63
2022-08-20T07:45:20.989Z,98878.25
2022-08-20T07:47:23.324Z,98882.72
2022-08-20T07:49:25.672Z,98890.63
2022-08-20T07:51:27.751Z,98881.97
2022-08-20T07:53:35.192Z,98876.13
2022-08-20T07:55:37.829Z,98874.53
2022-08-20T07:57:39.720Z,98871.25
2022-08-20T07:59:41.464Z,98871.25
2022-08-20T08:01:43.333Z,98887.69
2022-08-20T08:03:49.593Z,98881.19
2022-08-20T08:05:52.484Z,98892.28
2022-08-20T08:07:54.448Z,98885.78
2022-08-20T08:09:57.571Z,98877.19
2022-08-20T08:12:03.034Z,98880.63
2022-08-20T08:14:08.337Z,98877.38
2022-08-20T08:16:11.005Z,98877.38
2022-08-20T08:18:21.832Z,98876.69
2022-08-20T08:20:23.988Z,98875.75
2022-08-20T08:22:26.275Z,98872.53
2022-08-20T08:24:28.721Z,98879.34
2022-08-20T08:26:30.723Z,98877.75
2022-08-20T08:28:32.571Z,98873.41
2022-08-20T08:30:34.401Z,98870.78
2022-08-20T08:32:58.209Z,98872.16
2022-08-20T08:35:05.127Z,98873.63
2022-08-20T08:37:06.929Z,98863.94
2022-08-20T08:39:08.777Z,98869.44
2022-08-20T08:41:23.248Z,98873.50
2022-08-20T08:43:27.887Z,98864.34
2022-08-20T08:45:45.828Z,98865.41
2022-08-20T08:47:48.218Z,98865.13
2022-08-20T08:49:50.186Z,98852.63
2022-08-20T08:51:57.171Z,98854.47
2022-08-20T08:54:04.636Z,98853.91
2022-08-20T08:56:09.950Z,98851.00
2022-08-20T08:58:17.236Z,98852.31
2022-08-20T09:00:21.861Z,98851.84
2022-08-20T09:02:26.298Z,98849.31
2022-08-20T09:04:37.250Z,98854.41
2022-08-20T09:06:40.464Z,98855.41
2022-08-20T09:08:51.184Z,98855.13
2022-08-20T09:10:53.396Z,98856.97
2022-08-20T09:12:55.356Z,98855.41
2022-08-20T09:14:57.595Z,98863.94
2022-08-20T09:16:59.455Z,98863.94
2022-08-20T09:19:01.209Z,98866.03
2022-08-20T09:21:03.166Z,98866.38
2022-08-20T09:23:08.073Z,98864.59
2022-08-20T09:25:10.563Z,98869.22
2022-08-20T09:27:12.994Z,98861.94
2022-08-20T09:29:15.160Z,98873.50
2022-08-20T09:31:18.308Z,98877.38
2022-08-20T09:33:20.433Z,98865.47
2022-08-20T09:35:22.301Z,98868.25
2022-08-20T09:37:26.138Z,98873.41
2022-08-20T09:39:27.984Z,98874.38
2022-08-20T09:41:30.809Z,98878.84
2022-08-20T09:43:32.818Z,98873.66
2022-08-20T09:45:36.200Z,98886.34
2022-08-20T09:47:39.836Z,98883.19
2022-08-20T09:49:57.207Z,98881.59
2022-08-20T09:52:01.514Z,98893.16
2022-08-20T09:54:03.428Z,98878.47
2022-08-20T09:56:05.423Z,98889.88
2022-08-20T09:58:11.398Z,98900.22
2022-08-20T10:00:14.119Z,98891.34
2022-08-20T10:02:16.219Z,98908.13
2022-08-20T10:04:18.057Z,98910.44
2022-08-20T10:06:20.779Z,98906.03
2022-08-20T10:08:22.771Z,98910.59
2022-08-20T10:10:24.992Z,98904.41
2022-08-20T10:12:27.148Z,98914.28
2022-08-20T10:14:29.000Z,98912.66
2022-08-20T10:16:31.443Z,98903.16
2022-08-20T10:18:35.025Z,98892.50
2022-08-20T10:20:37.240Z,98905.06
2022-08-20T10:22:39.057Z,98895.56
2022-08-20T10:24:40.924Z,98893.41
2022-08-20T10:26:42.747Z,98888.19
2022-08-20T10:28:44.907Z,98891.56
2022-08-20T10:30:47.125Z,98887.09
2022-08-20T10:32:49.125Z,98891.94
2022-08-20T10:34:50.939Z,98883.81
2022-08-20T10:36:52.865Z,98891.00
2022-08-20T10:38:54.819Z,98896.72
2022-08-20T10:40:57.143Z,98903.28
2022-08-20T10:42:59.073Z,98909.03
2022-08-20T10:45:00.864Z,98910.84
2022-08-20T10:47:16.421Z,98912.63
2022-08-20T10:49:18.233Z,98897.81
2022-08-20T10:51:20.057Z,98891.81
2022-08-20T10:53:21.901Z,98894.75
2022-08-20T10:55:23.716Z,98907.41
2022-08-20T10:57:28.267Z,98908.75
2022-08-20T10:59:31.000Z,98900.09
2022-08-20T11:01:36.190Z,98899.97
2022-08-20T11:03:38.655Z,98905.69
2022-08-20T11:05:40.471Z,98892.56
2022-08-20T11:07:50.624Z,98905.94
2022-08-20T11:09:58.665Z,98901.09
2022-08-20T11:12:00.538Z,98912.38
2022-08-20T11:14:02.250Z,98907.28
2022-08-20T11:16:05.194Z,98912.88
2022-08-20T11:18:08.028Z,98907.63
2022-08-20T11:20:13.358Z,98914.44
2022-08-20T11:22:15.910Z,98903.63
2022-08-20T11:24:19.008Z,98897.78
2022-08-20T11:26:25.177Z,98908.09
2022-08-20T11:28:31.320Z,98918.06
2022-08-20T11:30:36.547Z,98907.75
2022-08-20T11:32:38.531Z,98900.09
2022-08-20T11:34:40.434Z,98907.28
2022-08-20T11:36:42.603Z,98922.47
2022-08-20T11:38:44.539Z,98912.72
2022-08-20T11:40:47.231Z,98923.59
2022-08-20T11:43:12.954Z,98921.88
2022-08-20T11:45:11.187Z,98925.66
2022-08-20T11:47:26.129Z,98936.22
2022-08-20T11:49:27.990Z,98945.31
2022-08-20T11:51:30.205Z,98948.84
2022-08-20T11:53:38.061Z,98952.59
2022-08-20T11:55:42.130Z,98959.53
2022-08-20T11:57:47.444Z,98958.06
2022-08-20T11:59:51.560Z,98969.78
2022-08-20T12:02:02.804Z,98981.53
2022-08-20T12:04:05.333Z,98973.88
2022-08-20T12:06:07.743Z,98971.66
2022-08-20T12:08:10.295Z,98977.50
2022-08-20T12:10:29.231Z,98974.88
2022-08-20T12:12:31.151Z,98991.22
2022-08-20T12:14:33.409Z,98995.13
2022-08-20T12:16:35.608Z,98981.88
2022-08-20T12:18:38.366Z,99003.00
2022-08-20T12:20:42.521Z,99004.78
2022-08-20T12:22:45.450Z,99007.56
2022-08-20T12:24:48.054Z,99001.84
2022-08-20T12:26:53.210Z,99010.06
2022-08-20T12:28:56.109Z,99006.44
2022-08-20T12:31:02.755Z,99015.91
2022-08-20T12:33:05.275Z,99013.16
2022-08-20T12:35:10.539Z,99015.94
2022-08-20T12:37:16.350Z,99015.78
2022-08-20T12:39:18.622Z,99016.09
2022-08-20T12:41:20.755Z,99021.47
2022-08-20T12:43:24.998Z,99021.00
2022-08-20T12:45:28.127Z,99015.16
2022-08-20T12:47:32.902Z,99018.38
2022-08-20T12:49:35.525Z,99021.34
2022-08-20T12:51:38.044Z,99030.38
2022-08-20T12:53:40.746Z,99025.66
2022-08-20T12:55:42.926Z,99022.63
2022-08-20T12:57:53.986Z,99022.00
2022-08-20T13:00:01.891Z,99029.13
2022-08-20T13:02:14.117Z,99027.59
2022-08-20T13:04:21.258Z,99036.66
2022-08-20T13:06:23.588Z,99037.44
2022-08-20T13:08:26.270Z,99046.19
2022-08-20T13:10:36.897Z,99040.88
2022-08-20T13:12:39.196Z,99040.47
2022-08-20T13:14:41.955Z,99037.50
2022-08-20T13:16:44.302Z,99029.44
2022-08-20T13:18:47.502Z,99030.59
2022-08-20T13:20:49.857Z,99038.59
2022-08-20T13:22:52.931Z,99045.75
2022-08-20T13:24:55.297Z,99049.44
2022-08-20T13:27:12.484Z,99046.91
2022-08-20T13:29:15.558Z,99061.88
2022-08-20T13:31:18.036Z,99070.47
2022-08-20T13:33:21.637Z,99063.06
2022-08-20T13:35:26.505Z,99062.66
2022-08-20T13:37:29.961Z,99070.63
2022-08-20T13:39:31.954Z,99056.97
2022-08-20T13:41:34.464Z,99052.75
2022-08-20T13:43:36.703Z,99064.34
2022-08-20T13:45:40.906Z,99071.66
2022-08-20T13:47:43.733Z,99065.22
2022-08-20T13:49:46.317Z,99062.22
2022-08-20T13:51:48.860Z,99053.06
2022-08-20T13:53:54.574Z,99061.16
2022-08-20T13:55:59.240Z,99044.25
2022-08-20T13:58:05.996Z,99036.13
2022-08-20T14:00:12.958Z,99029.97
2022-08-20T14:02:16.353Z,99032.81
2022-08-20T14:04:18.803Z,99027.63
2022-08-20T14:06:20.991Z,99027.81
2022-08-20T14:08:24.424Z,99024.81
2022-08-20T14:10:31.508Z,99026.75
2022-08-20T14:12:33.941Z,99038.31
2022-08-20T14:14:36.418Z,99036.00
2022-08-20T14:16:39.979Z,99038.13
2022-08-20T14:18:42.650Z,99041.13
2022-08-20T14:20:46.053Z,99040.25
2022-08-20T14:22:48.579Z,99047.78
2022-08-20T14:24:51.408Z,99041.38
2022-08-20T14:26:53.421Z,99042.28
2022-08-20T14:28:55.430Z,99044.66
2022-08-20T14:30:57.544Z,99042.34
2022-08-20T14:33:02.530Z,99046.25
2022-08-20T14:35:05.747Z,99037.97
2022-08-20T14:37:25.176Z,99041.66
2022-08-20T14:39:27.557Z,99039.34
2022-08-20T14:41:30.025Z,99035.53
2022-08-20T14:43:32.493Z,99049.69
2022-08-20T14:45:34.673Z,99072.81
2022-08-20T14:47:43.020Z,99060.19
2022-08-20T14:49:46.148Z,99049.50
2022-08-20T14:51:48.121Z,99043.03
2022-08-20T14:53:50.767Z,99044.91
2022-08-20T14:55:52.640Z,99058.34
2022-08-20T14:57:54.860Z,99073.22
2022-08-20T14:59:56.749Z,99076.16
2022-08-20T15:01:59.849Z,99075.47
2022-08-20T15:04:01.662Z,99067.50
2022-08-20T15:06:03.723Z,99059.97
2022-08-20T15:08:10.462Z,99055.69
2022-08-20T15:10:19.858Z,99067.94
2022-08-20T15:12:23.011Z,99067.66
2022-08-20T15:14:25.490Z,99076.69
2022-08-20T15:16:29.507Z,99064.88
2022-08-20T15:18:31.999Z,99054.38
2022-08-20T15:20:38.161Z,99063.25
2022-08-20T15:22:41.725Z,99069.69
2022-08-20T15:24:45.837Z,99068.50
2022-08-20T15:26:48.186Z,99062.69
2022-08-20T15:28:50.128Z,99062.72
2022-08-20T15:30:52.084Z,99061.28
2022-08-20T15:32:56.133Z,99057.50
2022-08-20T15:34:59.591Z,99054.19
2022-08-20T15:37:19.789Z,99046.78
2022-08-20T15:39:21.567Z,99037.78
2022-08-20T15:41:23.475Z,99030.50
2022-08-20T15:43:25.362Z,99038.22
2022-08-20T15:45:27.846Z,99036.03
2022-08-20T15:47:34.213Z,99030.50
2022-08-20T15:49:37.449Z,99042.81
2022-08-20T15:51:46.728Z,99031.03
2022-08-20T15:53:56.879Z,99032.53
2022-08-20T15:56:20.685Z,99041.78
2022-08-20T15:58:37.903Z,99046.59
2022-08-20T16:01:24.893Z,99040.19
2022-08-20T16:03:53.969Z,99030.81
2022-08-20T16:06:18.083Z,99018.97
2022-08-20T16:08:44.551Z,99020.66
2022-08-20T16:10:52.054Z,99004.19
2022-08-20T16:12:58.086Z,99006.84
2022-08-20T16:15:07.827Z,98992.69
2022-08-20T16:17:15.266Z,98972.91
2022-08-20T16:19:29.452Z,98958.00
2022-08-20T16:21:37.590Z,98955.22
2022-08-20T16:23:42.719Z,98956.81
2022-08-20T16:25:59.084Z,98959.78
2022-08-20T16:28:09.902Z,98953.91
2022-08-20T16:30:21.452Z,98936.31
2022-08-20T16:32:44.649Z,98928.47
2022-08-20T16:35:01.488Z,98932.09
2022-08-20T16:37:25.317Z,98939.88
2022-08-20T16:39:32.324Z,98932.16
2022-08-20T16:41:49.722Z,98941.78
2022-08-20T16:43:54.852Z,98933.09
2022-08-20T16:46:12.239Z,98932.84
2022-08-20T16:48:14.143Z,98932.03
2022-08-20T16:50:29.216Z,98926.38
2022-08-20T16:52:31.565Z,98952.47
2022-08-20T16:54:33.455Z,98972.91
2022-08-20T16:56:38.899Z,98966.19
2022-08-20T16:58:45.427Z,98963.84
2022-08-20T17:00:48.173Z,98961.28
2022-08-20T17:02:57.856Z,98946.97
2022-08-20T17:05:04.734Z,98938.41
2022-08-20T17:07:09.877Z,98957.38
2022-08-20T17:09:21.480Z,98945.38
2022-08-20T17:11:31.961Z,98949.56
2022-08-20T17:13:37.155Z,98946.31
2022-08-20T17:15:39.930Z,98954.81
2022-08-20T17:17:41.693Z,98965.69
2022-08-20T17:19:52.039Z,98957.78
2022-08-20T17:22:09.281Z,98931.81
2022-08-20T17:24:25.417Z,98952.03
2022-08-20T17:26:42.046Z,98963.19
2022-08-20T17:28:55.634Z,98972.34
2022-08-20T17:30:58.237Z,98957.47
2022-08-20T17:33:03.582Z,98968.84
2022-08-20T17:35:06.127Z,98972.00
2022-08-20T17:37:18.280Z,98956.88
2022-08-20T17:39:23.244Z,98950.69
2022-08-20T17:41:31.697Z,98950.38
2022-08-20T17:43:34.819Z,98932.03
2022-08-20T17:45:46.585Z,98909.56
2022-08-20T17:47:49.058Z,98890.03
2022-08-20T17:50:03.380Z,98862.38
2022-08-20T17:52:13.092Z,98857.72
2022-08-20T17:54:26.045Z,98870.47
2022-08-20T17:56:34.627Z,98916.19
2022-08-20T17:58:54.191Z,98941.75
2022-08-20T18:00:56.455Z,98957.09
2022-08-20T18:03:02.107Z,98957.19
2022-08-20T18:05:12.246Z,98959.00
2022-08-20T18:07:25.413Z,98971.94
2022-08-20T18:09:46.538Z,98984.28
2022-08-20T18:12:33.705Z,98987.94
2022-08-20T18:15:08.720Z,98997.59
2022-08-20T18:17:38.742Z,99003.38
2022-08-20T18:20:02.102Z,99006.72
2022-08-20T18:22:08.619Z,99016.00
2022-08-20T18:24:21.958Z,99016.28
2022-08-20T18:26:33.068Z,99021.03
2022-08-20T18:28:41.347Z,99027.44
2022-08-20T18:30:53.341Z,99022.56
2022-08-20T18:33:09.037Z,99016.88
2022-08-20T18:35:15.919Z,99006.66
2022-08-20T18:37:17.637Z,99015.81
2022-08-20T18:39:28.530Z,99023.94
2022-08-20T18:41:54.704Z,99027.06
2022-08-20T18:44:09.051Z,99023.72
2022-08-20T18:46:21.882Z,99007.22
2022-08-20T18:48:25.110Z,99011.22
2022-08-20T18:50:39.334Z,99003.16
2022-08-20T18:52:44.815Z,99001.53
2022-08-20T18:54:52.253Z,99010.00
2022-08-20T18:57:40.657Z,98990.72
2022-08-20T18:59:47.523Z,98975.50
2022-08-20T19:01:49.638Z,98969.13
2022-08-20T19:03:54.609Z,98969.75
2022-08-20T19:06:24.861Z,98974.53
2022-08-20T19:08:46.174Z,98975.09
2022-08-20T19:10:52.420Z,98958.72
2022-08-20T19:13:00.095Z,98963.75
2022-08-20T19:15:07.126Z,98967.06
2022-08-20T19:17:24.080Z,98967.75
2022-08-20T19:19:30.775Z,98973.53
2022-08-20T19:21:35.746Z,98983.34
2022-08-20T19:23:40.913Z,98983.56
2022-08-20T19:25:57.069Z,98987.72
2022-08-20T19:28:00.982Z,98989.09
2022-08-20T19:30:02.975Z,98988.59
2022-08-20T19:32:08.562Z,98971.38
2022-08-20T19:34:19.603Z,98971.16
2022-08-20T19:36:28.452Z,98959.97
2022-08-20T19:38:30.806Z,98963.78
2022-08-20T19:40:39.204Z,98956.91
2022-08-20T19:42:43.181Z,98959.69
2022-08-20T19:44:49.973Z,98962.78
2022-08-20T19:46:52.278Z,98975.28
2022-08-20T19:49:05.764Z,98972.38
2022-08-20T19:51:25.881Z,98966.25
2022-08-20T19:53:32.607Z,98960.38
2022-08-20T19:55:36.638Z,98954.38
2022-08-20T19:57:38.569Z,98955.91
2022-08-20T19:59:51.379Z,98960.66
2022-08-20T20:02:00.293Z,98953.50
2022-08-20T20:04:05.249Z,98954.38
2022-08-20T20:06:17.331Z,98958.91
2022-08-20T20:08:20.803Z,98966.34
2022-08-20T20:10:22.602Z,98970.16
2022-08-20T20:12:24.843Z,98975.00
2022-08-20T20:14:31.841Z,98977.81
2022-08-20T20:16:35.208Z,98991.47
2022-08-20T20:18:40.796Z,98983.91
2022-08-20T20:21:11.846Z,98971.38
2022-08-20T20:23:46.866Z,98979.97
2022-08-20T20:25:56.734Z,98979.25
2022-08-20T20:28:09.167Z,98973.09
2022-08-20T20:30:13.145Z,98981.19
2022-08-20T20:32:20.784Z,98984.53
2022-08-20T20:34:30.302Z,98986.06
2022-08-20T20:36:39.372Z,98985.06
2022-08-20T20:39:05.783Z,98994.59
2022-08-20T20:41:20.646Z,98995.09
2022-08-20T20:43:33.055Z,98987.66
2022-08-20T20:45:39.286Z,98990.94
2022-08-20T20:47:51.412Z,98995.94
2022-08-20T20:49:55.227Z,98990.25
2022-08-20T20:52:15.179Z,98981.66
2022-08-20T20:54:47.132Z,98984.09
2022-08-20T20:56:59.035Z,98993.22
2022-08-20T20:59:06.254Z,99000.28
2022-08-20T21:01:09.062Z,99007.22
2022-08-20T21:03:11.494Z,98995.88
2022-08-20T21:05:15.905Z,98986.28
2022-08-20T21:07:21.854Z,98981.97
2022-08-20T21:09:25.858Z,98994.19
2022-08-20T21:11:31.621Z,98994.53
2022-08-20T21:13:33.998Z,98982.47
2022-08-20T21:15:37.605Z,98983.50
2022-08-20T21:17:39.848Z,98979.91
2022-08-20T21:19:45.147Z,98985.75
2022-08-20T21:21:48.079Z,98985.09
2022-08-20T21:23:50.435Z,98992.84
2022-08-20T21:25:52.846Z,99003.03
2022-08-20T21:27:55.761Z,98997.84
2022-08-20T21:29:58.054Z,99012.84
2022-08-20T21:32:00.751Z,99019.03
2022-08-20T21:34:03.162Z,99019.41
2022-08-20T21:36:06.086Z,99009.63
2022-08-20T21:38:08.827Z,99014.63
2022-08-20T21:40:14.361Z,99004.28
2022-08-20T21:42:29.052Z,99002.19
2022-08-20T21:44:35.295Z,99009.25
2022-08-20T21:46:37.365Z,99015.81
2022-08-20T21:48:39.811Z,99017.88
2022-08-20T21:50:42.625Z,99011.69
2022-08-20T21:52:58.068Z,99017.19
2022-08-20T21:55:02.685Z,99021.00
2022-08-20T21:57:30.033Z,99027.41
2022-08-20T21:59:34.443Z,99023.91
2022-08-20T22:01:38.413Z,99020.31
2022-08-20T22:03:41.123Z,99025.81
2022-08-20T22:05:44.282Z,99026.88
2022-08-20T22:07:46.637Z,99030.66
2022-08-20T22:09:48.807Z,99035.13
2022-08-20T22:11:54.660Z,99031.16
2022-08-20T22:13:58.072Z,99024.63
2022-08-20T22:16:06.351Z,99034.13
2022-08-20T22:18:11.883Z,99037.53
2022-08-20T22:20:14.293Z,99046.88
2022-08-20T22:22:17.631Z,99053.91
2022-08-20T22:24:20.057Z,99062.69
2022-08-20T22:26:22.636Z,99070.97
2022-08-20T22:28:29.853Z,99080.81
2022-08-20T22:30:32.578Z,99080.47
2022-08-20T22:32:50.458Z,99085.06
2022-08-20T22:34:54.437Z,99078.88
2022-08-20T22:36:58.441Z,99064.41
2022-08-20T22:39:00.819Z,99071.47
2022-08-20T22:41:08.986Z,99076.81
2022-08-20T22:43:13.266Z,99067.03
2022-08-20T22:45:15.875Z,99072.47
2022-08-20T22:47:24.841Z,99070.06
2022-08-20T22:49:31.029Z,99078.50
2022-08-20T22:51:36.753Z,99073.88
2022-08-20T22:53:48.649Z,99070.94
2022-08-20T22:55:52.023Z,99065.78
2022-08-20T22:57:54.978Z,99061.66
2022-08-20T22:59:59.697Z,99072.16
2022-08-20T23:02:08.345Z,99058.41
2022-08-20T23:04:17.507Z,99059.25
2022-08-20T23:06:20.400Z,99053.75
2022-08-20T23:08:23.109Z,99062.84
2022-08-20T23:10:32.037Z,99064.06
2022-08-20T23:12:34.289Z,99052.84
2022-08-20T23:14:37.674Z,99045.81
2022-08-20T23:16:46.783Z,99046.34
2022-08-20T23:18:49.128Z,99043.59
2022-08-20T23:20:56.378Z,99032.88
2022-08-20T23:23:00.531Z,99036.69
2022-08-20T23:25:06.065Z,99026.38
2022-08-20T23:27:12.536Z,99022.91
2022-08-20T23:29:22.206Z,99014.31
2022-08-20T23:31:27.419Z,99026.38
2022-08-20T23:33:31.757Z,99029.47
2022-08-20T23:35:34.165Z,99029.97
2022-08-20T23:37:42.347Z,99042.34
2022-08-20T23:39:46.531Z,99034.28
2022-08-20T23:41:48.777Z,99030.47
2022-08-20T23:43:51.443Z,99029.63
2022-08-20T23:46:04.468Z,99033.47
2022-08-20T23:48:07.234Z,99036.22
2022-08-20T23:50:13.371Z,99029.50
2022-08-20T23:52:15.553Z,99027.25
2022-08-20T23:54:18.136Z,99024.00
2022-08-20T23:56:20.307Z,99009.19
2022-08-20T23:58:23.059Z,99013.00
